Terminal Aerodrome Forecast
Issued by NWS St Louis, MO

Home | Current Version | Previous Version | Text Only | Print | Product List | Glossary On
Versions: 1 2 3 4 5 6 7 8 9 10 11 12 13 14 15 16 17 18 19 20 21 22 23 24 25 26
000
FTUS43 KLSX 270646 AAA
TAFCOU
TAF AMD
KCOU 270646Z 2707/2806 14005KT P6SM VCTS SCT020CB BKN100
     FM270800 14005KT P6SM SCT030 BKN120
      TEMPO 2709/2713 5SM BR
     FM271500 20006KT P6SM SCT040 BKN120
     FM280100 VRB04KT P6SM FEW050 BKN250=

USA.gov is the U.S. government's official web portal to all federal, state and local government web resources and services.